sensor_id;sensor_type;location;lat;lon;timestamp;P1;durP1;ratioP1;P2;durP2;ratioP2
71108;SDS011;59614;51.012;-1.648;2022-07-29T00:02:11;6.50;;;3.10;;
71108;SDS011;59614;51.012;-1.648;2022-07-29T00:04:36;7.63;;;3.92;;
71108;SDS011;59614;51.012;-1.648;2022-07-29T00:07:03;7.97;;;3.97;;
71108;SDS011;59614;51.012;-1.648;2022-07-29T00:09:29;11.07;;;3.73;;
71108;SDS011;59614;51.012;-1.648;2022-07-29T00:11:56;9.27;;;3.40;;
71108;SDS011;59614;51.012;-1.648;2022-07-29T00:14:24;10.15;;;3.53;;
71108;SDS011;59614;51.012;-1.648;2022-07-29T00:16:50;6.97;;;3.00;;
71108;SDS011;59614;51.012;-1.648;2022-07-29T00:19:15;7.35;;;3.00;;
71108;SDS011;59614;51.012;-1.648;2022-07-29T00:21:41;5.65;;;3.05;;
71108;SDS011;59614;51.012;-1.648;2022-07-29T00:24:06;12.77;;;3.30;;
71108;SDS011;59614;51.012;-1.648;2022-07-29T00:26:32;8.75;;;3.40;;
71108;SDS011;59614;51.012;-1.648;2022-07-29T00:28:58;11.98;;;4.07;;
71108;SDS011;59614;51.012;-1.648;2022-07-29T00:31:24;9.55;;;2.85;;
71108;SDS011;59614;51.012;-1.648;2022-07-29T00:33:50;8.75;;;3.03;;
71108;SDS011;59614;51.012;-1.648;2022-07-29T00:36:15;8.75;;;2.85;;
71108;SDS011;59614;51.012;-1.648;2022-07-29T00:38:40;6.53;;;2.72;;
71108;SDS011;59614;51.012;-1.648;2022-07-29T00:41:09;6.38;;;2.80;;
71108;SDS011;59614;51.012;-1.648;2022-07-29T00:43:34;6.80;;;3.30;;
71108;SDS011;59614;51.012;-1.648;2022-07-29T00:46:00;7.78;;;3.00;;
71108;SDS011;59614;51.012;-1.648;2022-07-29T00:48:25;8.60;;;3.17;;
71108;SDS011;59614;51.012;-1.648;2022-07-29T00:50:51;6.10;;;2.70;;
71108;SDS011;59614;51.012;-1.648;2022-07-29T00:53:16;7.07;;;3.13;;
71108;SDS011;59614;51.012;-1.648;2022-07-29T00:55:42;15.60;;;2.80;;
71108;SDS011;59614;51.012;-1.648;2022-07-29T00:58:08;7.07;;;2.60;;
71108;SDS011;59614;51.012;-1.648;2022-07-29T01:00:34;5.50;;;2.50;;
71108;SDS011;59614;51.012;-1.648;2022-07-29T01:02:59;7.65;;;2.80;;
71108;SDS011;59614;51.012;-1.648;2022-07-29T01:05:26;5.40;;;2.70;;
71108;SDS011;59614;51.012;-1.648;2022-07-29T01:07:54;13.60;;;3.22;;
71108;SDS011;59614;51.012;-1.648;2022-07-29T01:10:20;6.43;;;2.65;;
71108;SDS011;59614;51.012;-1.648;2022-07-29T01:12:48;5.88;;;2.70;;
71108;SDS011;59614;51.012;-1.648;2022-07-29T01:15:15;6.13;;;2.63;;
71108;SDS011;59614;51.012;-1.648;2022-07-29T01:28:52;10.73;;;2.90;;
71108;SDS011;59614;51.012;-1.648;2022-07-29T01:31:20;7.95;;;2.72;;
71108;SDS011;59614;51.012;-1.648;2022-07-29T01:33:58;4.88;;;2.00;;
71108;SDS011;59614;51.012;-1.648;2022-07-29T01:36:29;4.50;;;2.35;;
71108;SDS011;59614;51.012;-1.648;2022-07-29T01:41:49;6.85;;;2.80;;
71108;SDS011;59614;51.012;-1.648;2022-07-29T01:44:31;6.38;;;2.72;;
71108;SDS011;59614;51.012;-1.648;2022-07-29T01:47:02;6.68;;;2.67;;
71108;SDS011;59614;51.012;-1.648;2022-07-29T01:49:35;7.18;;;2.60;;
71108;SDS011;59614;51.012;-1.648;2022-07-29T01:52:08;6.32;;;2.35;;
71108;SDS011;59614;51.012;-1.648;2022-07-29T01:54:45;7.03;;;2.90;;
71108;SDS011;59614;51.012;-1.648;2022-07-29T01:57:16;8.10;;;2.60;;
71108;SDS011;59614;51.012;-1.648;2022-07-29T02:02:10;8.70;;;2.65;;
71108;SDS011;59614;51.012;-1.648;2022-07-29T02:07:06;9.25;;;2.55;;
71108;SDS011;59614;51.012;-1.648;2022-07-29T02:09:34;10.85;;;3.28;;
71108;SDS011;59614;51.012;-1.648;2022-07-29T02:12:02;5.13;;;2.70;;
71108;SDS011;59614;51.012;-1.648;2022-07-29T02:16:58;5.40;;;2.75;;
71108;SDS011;59614;51.012;-1.648;2022-07-29T02:19:25;6.75;;;2.80;;
71108;SDS011;59614;51.012;-1.648;2022-07-29T02:21:52;7.45;;;2.63;;
71108;SDS011;59614;51.012;-1.648;2022-07-29T02:24:19;5.35;;;2.60;;
71108;SDS011;59614;51.012;-1.648;2022-07-29T02:26:47;9.18;;;3.10;;
71108;SDS011;59614;51.012;-1.648;2022-07-29T02:29:14;7.28;;;2.70;;
71108;SDS011;59614;51.012;-1.648;2022-07-29T02:31:43;11.25;;;2.90;;
71108;SDS011;59614;51.012;-1.648;2022-07-29T02:34:12;8.55;;;2.75;;
71108;SDS011;59614;51.012;-1.648;2022-07-29T02:36:39;6.30;;;2.80;;
71108;SDS011;59614;51.012;-1.648;2022-07-29T02:39:07;6.53;;;2.90;;
71108;SDS011;59614;51.012;-1.648;2022-07-29T02:41:35;10.32;;;3.20;;
71108;SDS011;59614;51.012;-1.648;2022-07-29T02:44:09;8.55;;;2.67;;
71108;SDS011;59614;51.012;-1.648;2022-07-29T02:46:37;9.40;;;3.38;;
71108;SDS011;59614;51.012;-1.648;2022-07-29T02:49:13;10.15;;;3.40;;
71108;SDS011;59614;51.012;-1.648;2022-07-29T02:51:45;10.18;;;3.10;;
71108;SDS011;59614;51.012;-1.648;2022-07-29T02:54:28;10.20;;;3.13;;
71108;SDS011;59614;51.012;-1.648;2022-07-29T02:56:56;11.88;;;3.45;;
71108;SDS011;59614;51.012;-1.648;2022-07-29T02:59:28;8.35;;;3.30;;
71108;SDS011;59614;51.012;-1.648;2022-07-29T03:01:57;9.57;;;3.55;;
71108;SDS011;59614;51.012;-1.648;2022-07-29T03:04:25;11.23;;;3.33;;
71108;SDS011;59614;51.012;-1.648;2022-07-29T03:06:53;7.55;;;2.80;;
71108;SDS011;59614;51.012;-1.648;2022-07-29T03:09:20;7.60;;;3.00;;
71108;SDS011;59614;51.012;-1.648;2022-07-29T03:11:49;8.68;;;2.92;;
71108;SDS011;59614;51.012;-1.648;2022-07-29T03:14:15;6.88;;;2.88;;
71108;SDS011;59614;51.012;-1.648;2022-07-29T03:16:42;7.15;;;3.10;;
71108;SDS011;59614;51.012;-1.648;2022-07-29T03:19:08;7.32;;;3.25;;
71108;SDS011;59614;51.012;-1.648;2022-07-29T03:21:33;7.47;;;2.92;;
71108;SDS011;59614;51.012;-1.648;2022-07-29T03:23:59;9.75;;;2.80;;
71108;SDS011;59614;51.012;-1.648;2022-07-29T03:26:25;6.40;;;2.50;;
71108;SDS011;59614;51.012;-1.648;2022-07-29T03:28:50;5.38;;;2.63;;
71108;SDS011;59614;51.012;-1.648;2022-07-29T03:31:16;6.55;;;2.70;;
71108;SDS011;59614;51.012;-1.648;2022-07-29T03:33:41;7.90;;;2.97;;
71108;SDS011;59614;51.012;-1.648;2022-07-29T03:36:07;13.93;;;2.70;;
71108;SDS011;59614;51.012;-1.648;2022-07-29T03:38:33;7.90;;;2.90;;
71108;SDS011;59614;51.012;-1.648;2022-07-29T03:41:01;7.50;;;2.63;;
71108;SDS011;59614;51.012;-1.648;2022-07-29T03:43:36;6.22;;;2.42;;
71108;SDS011;59614;51.012;-1.648;2022-07-29T03:46:04;9.80;;;2.65;;
71108;SDS011;59614;51.012;-1.648;2022-07-29T03:48:35;4.60;;;2.33;;
71108;SDS011;59614;51.012;-1.648;2022-07-29T03:51:04;10.15;;;2.65;;
71108;SDS011;59614;51.012;-1.648;2022-07-29T03:53:31;6.35;;;2.47;;
71108;SDS011;59614;51.012;-1.648;2022-07-29T03:55:58;6.93;;;2.70;;
71108;SDS011;59614;51.012;-1.648;2022-07-29T03:58:27;6.07;;;2.40;;
71108;SDS011;59614;51.012;-1.648;2022-07-29T04:00:54;6.28;;;2.45;;
71108;SDS011;59614;51.012;-1.648;2022-07-29T04:03:20;8.38;;;2.50;;
71108;SDS011;59614;51.012;-1.648;2022-07-29T04:05:57;6.00;;;2.70;;
71108;SDS011;59614;51.012;-1.648;2022-07-29T04:08:24;12.50;;;2.70;;
71108;SDS011;59614;51.012;-1.648;2022-07-29T04:10:49;7.15;;;2.72;;
71108;SDS011;59614;51.012;-1.648;2022-07-29T04:13:16;9.35;;;2.83;;
71108;SDS011;59614;51.012;-1.648;2022-07-29T04:15:42;7.68;;;2.80;;
71108;SDS011;59614;51.012;-1.648;2022-07-29T04:18:08;8.35;;;2.60;;
71108;SDS011;59614;51.012;-1.648;2022-07-29T04:20:33;7.72;;;2.60;;
71108;SDS011;59614;51.012;-1.648;2022-07-29T04:22:59;10.18;;;2.50;;
71108;SDS011;59614;51.012;-1.648;2022-07-29T04:25:24;6.65;;;2.50;;
71108;SDS011;59614;51.012;-1.648;2022-07-29T04:27:50;7.47;;;2.60;;
71108;SDS011;59614;51.012;-1.648;2022-07-29T04:32:53;7.07;;;2.75;;
71108;SDS011;59614;51.012;-1.648;2022-07-29T04:35:19;11.32;;;2.80;;
71108;SDS011;59614;51.012;-1.648;2022-07-29T04:37:45;6.43;;;2.88;;
71108;SDS011;59614;51.012;-1.648;2022-07-29T04:40:10;7.93;;;2.63;;
71108;SDS011;59614;51.012;-1.648;2022-07-29T04:42:36;4.70;;;2.30;;
71108;SDS011;59614;51.012;-1.648;2022-07-29T04:45:02;6.95;;;2.60;;
71108;SDS011;59614;51.012;-1.648;2022-07-29T04:47:28;7.57;;;2.95;;
71108;SDS011;59614;51.012;-1.648;2022-07-29T04:49:53;7.55;;;2.80;;
71108;SDS011;59614;51.012;-1.648;2022-07-29T04:52:20;7.53;;;2.53;;
71108;SDS011;59614;51.012;-1.648;2022-07-29T04:54:45;7.28;;;2.45;;
71108;SDS011;59614;51.012;-1.648;2022-07-29T04:57:10;9.02;;;2.60;;
71108;SDS011;59614;51.012;-1.648;2022-07-29T04:59:36;5.65;;;2.40;;
71108;SDS011;59614;51.012;-1.648;2022-07-29T05:02:01;10.85;;;2.75;;
71108;SDS011;59614;51.012;-1.648;2022-07-29T05:04:27;7.57;;;2.47;;
71108;SDS011;59614;51.012;-1.648;2022-07-29T05:06:52;7.20;;;2.70;;
71108;SDS011;59614;51.012;-1.648;2022-07-29T05:09:18;4.22;;;2.13;;
71108;SDS011;59614;51.012;-1.648;2022-07-29T05:11:43;9.63;;;2.60;;
71108;SDS011;59614;51.012;-1.648;2022-07-29T05:14:08;5.55;;;2.67;;
71108;SDS011;59614;51.012;-1.648;2022-07-29T05:16:34;6.55;;;2.33;;
71108;SDS011;59614;51.012;-1.648;2022-07-29T05:18:59;6.88;;;2.45;;
71108;SDS011;59614;51.012;-1.648;2022-07-29T05:21:25;6.15;;;2.55;;
71108;SDS011;59614;51.012;-1.648;2022-07-29T05:23:50;7.15;;;2.70;;
71108;SDS011;59614;51.012;-1.648;2022-07-29T05:26:15;14.32;;;2.65;;
71108;SDS011;59614;51.012;-1.648;2022-07-29T05:28:41;5.78;;;2.50;;
71108;SDS011;59614;51.012;-1.648;2022-07-29T05:31:06;8.20;;;2.30;;
71108;SDS011;59614;51.012;-1.648;2022-07-29T05:33:32;5.30;;;2.58;;
71108;SDS011;59614;51.012;-1.648;2022-07-29T05:35:57;5.78;;;2.47;;
71108;SDS011;59614;51.012;-1.648;2022-07-29T05:38:23;6.85;;;2.55;;
71108;SDS011;59614;51.012;-1.648;2022-07-29T05:40:48;8.55;;;2.63;;
71108;SDS011;59614;51.012;-1.648;2022-07-29T05:43:13;6.65;;;2.47;;
71108;SDS011;59614;51.012;-1.648;2022-07-29T05:45:39;15.60;;;3.67;;
71108;SDS011;59614;51.012;-1.648;2022-07-29T05:48:04;8.75;;;2.75;;
71108;SDS011;59614;51.012;-1.648;2022-07-29T05:50:30;7.30;;;2.85;;
71108;SDS011;59614;51.012;-1.648;2022-07-29T05:52:55;6.78;;;2.60;;
71108;SDS011;59614;51.012;-1.648;2022-07-29T05:55:21;8.50;;;2.60;;
71108;SDS011;59614;51.012;-1.648;2022-07-29T05:57:46;8.40;;;2.45;;
71108;SDS011;59614;51.012;-1.648;2022-07-29T06:00:12;13.73;;;3.25;;
71108;SDS011;59614;51.012;-1.648;2022-07-29T06:02:37;12.23;;;3.00;;
71108;SDS011;59614;51.012;-1.648;2022-07-29T06:05:03;7.05;;;2.65;;
71108;SDS011;59614;51.012;-1.648;2022-07-29T06:07:28;10.35;;;2.97;;
71108;SDS011;59614;51.012;-1.648;2022-07-29T06:09:54;8.05;;;2.75;;
71108;SDS011;59614;51.012;-1.648;2022-07-29T06:12:19;9.10;;;2.92;;
71108;SDS011;59614;51.012;-1.648;2022-07-29T06:14:45;6.38;;;2.83;;
71108;SDS011;59614;51.012;-1.648;2022-07-29T06:17:10;7.63;;;2.90;;
71108;SDS011;59614;51.012;-1.648;2022-07-29T06:19:37;17.27;;;3.20;;
71108;SDS011;59614;51.012;-1.648;2022-07-29T06:22:02;6.70;;;2.60;;
71108;SDS011;59614;51.012;-1.648;2022-07-29T06:24:28;11.50;;;3.10;;
71108;SDS011;59614;51.012;-1.648;2022-07-29T06:26:54;10.85;;;2.92;;
71108;SDS011;59614;51.012;-1.648;2022-07-29T06:29:19;11.05;;;3.00;;
71108;SDS011;59614;51.012;-1.648;2022-07-29T06:31:45;9.52;;;3.15;;
71108;SDS011;59614;51.012;-1.648;2022-07-29T06:34:10;12.15;;;2.85;;
71108;SDS011;59614;51.012;-1.648;2022-07-29T06:36:36;8.98;;;2.80;;
71108;SDS011;59614;51.012;-1.648;2022-07-29T06:39:05;6.47;;;2.60;;
71108;SDS011;59614;51.012;-1.648;2022-07-29T06:41:32;11.88;;;3.05;;
71108;SDS011;59614;51.012;-1.648;2022-07-29T06:43:57;7.07;;;2.97;;
71108;SDS011;59614;51.012;-1.648;2022-07-29T06:46:24;6.50;;;2.60;;
71108;SDS011;59614;51.012;-1.648;2022-07-29T06:48:50;7.93;;;2.60;;
71108;SDS011;59614;51.012;-1.648;2022-07-29T06:51:16;9.48;;;2.88;;
71108;SDS011;59614;51.012;-1.648;2022-07-29T06:53:42;9.18;;;3.00;;
71108;SDS011;59614;51.012;-1.648;2022-07-29T06:56:07;8.15;;;2.72;;
71108;SDS011;59614;51.012;-1.648;2022-07-29T06:58:33;11.43;;;2.90;;
71108;SDS011;59614;51.012;-1.648;2022-07-29T07:01:04;9.75;;;2.78;;
71108;SDS011;59614;51.012;-1.648;2022-07-29T07:03:31;9.65;;;3.25;;
71108;SDS011;59614;51.012;-1.648;2022-07-29T07:05:57;6.63;;;2.40;;
71108;SDS011;59614;51.012;-1.648;2022-07-29T07:08:22;4.65;;;2.30;;
71108;SDS011;59614;51.012;-1.648;2022-07-29T07:10:49;8.55;;;2.60;;
71108;SDS011;59614;51.012;-1.648;2022-07-29T07:13:15;10.45;;;3.17;;
71108;SDS011;59614;51.012;-1.648;2022-07-29T07:15:42;7.07;;;2.55;;
71108;SDS011;59614;51.012;-1.648;2022-07-29T07:18:08;14.73;;;2.60;;
71108;SDS011;59614;51.012;-1.648;2022-07-29T07:20:34;8.32;;;2.90;;
71108;SDS011;59614;51.012;-1.648;2022-07-29T07:22:59;11.60;;;2.80;;
71108;SDS011;59614;51.012;-1.648;2022-07-29T07:25:25;8.40;;;2.85;;
71108;SDS011;59614;51.012;-1.648;2022-07-29T07:27:51;8.48;;;2.40;;
71108;SDS011;59614;51.012;-1.648;2022-07-29T07:30:16;5.53;;;2.08;;
71108;SDS011;59614;51.012;-1.648;2022-07-29T07:32:41;6.45;;;2.83;;
71108;SDS011;59614;51.012;-1.648;2022-07-29T07:35:08;5.13;;;2.20;;
71108;SDS011;59614;51.012;-1.648;2022-07-29T07:37:34;8.40;;;2.60;;
71108;SDS011;59614;51.012;-1.648;2022-07-29T07:40:00;6.80;;;2.40;;
71108;SDS011;59614;51.012;-1.648;2022-07-29T07:42:26;12.10;;;2.65;;
71108;SDS011;59614;51.012;-1.648;2022-07-29T07:44:52;6.53;;;2.60;;
71108;SDS011;59614;51.012;-1.648;2022-07-29T07:47:17;9.43;;;2.58;;
71108;SDS011;59614;51.012;-1.648;2022-07-29T07:49:48;7.93;;;2.60;;
71108;SDS011;59614;51.012;-1.648;2022-07-29T07:52:18;7.40;;;2.80;;
71108;SDS011;59614;51.012;-1.648;2022-07-29T07:57:11;7.88;;;2.58;;
71108;SDS011;59614;51.012;-1.648;2022-07-29T07:59:37;8.70;;;2.40;;
71108;SDS011;59614;51.012;-1.648;2022-07-29T08:02:03;5.65;;;2.45;;
71108;SDS011;59614;51.012;-1.648;2022-07-29T08:04:28;6.10;;;2.30;;
71108;SDS011;59614;51.012;-1.648;2022-07-29T08:06:54;3.85;;;2.00;;
71108;SDS011;59614;51.012;-1.648;2022-07-29T08:09:21;10.73;;;2.97;;
71108;SDS011;59614;51.012;-1.648;2022-07-29T08:11:47;7.88;;;3.00;;
71108;SDS011;59614;51.012;-1.648;2022-07-29T08:14:13;7.53;;;3.20;;
71108;SDS011;59614;51.012;-1.648;2022-07-29T08:16:39;10.27;;;4.00;;
71108;SDS011;59614;51.012;-1.648;2022-07-29T08:19:05;9.82;;;3.95;;
71108;SDS011;59614;51.012;-1.648;2022-07-29T08:21:32;8.73;;;4.00;;
71108;SDS011;59614;51.012;-1.648;2022-07-29T08:23:57;9.70;;;3.97;;
71108;SDS011;59614;51.012;-1.648;2022-07-29T08:26:42;9.18;;;3.80;;
71108;SDS011;59614;51.012;-1.648;2022-07-29T08:29:08;12.32;;;3.50;;
71108;SDS011;59614;51.012;-1.648;2022-07-29T08:31:33;11.10;;;3.22;;
71108;SDS011;59614;51.012;-1.648;2022-07-29T08:33:59;7.50;;;3.17;;
71108;SDS011;59614;51.012;-1.648;2022-07-29T08:36:25;7.68;;;3.40;;
71108;SDS011;59614;51.012;-1.648;2022-07-29T08:38:51;9.23;;;3.40;;
71108;SDS011;59614;51.012;-1.648;2022-07-29T08:41:17;6.47;;;2.90;;
71108;SDS011;59614;51.012;-1.648;2022-07-29T08:43:44;8.80;;;3.60;;
71108;SDS011;59614;51.012;-1.648;2022-07-29T08:46:09;12.68;;;3.20;;
71108;SDS011;59614;51.012;-1.648;2022-07-29T08:48:35;5.47;;;2.33;;
71108;SDS011;59614;51.012;-1.648;2022-07-29T08:51:01;5.57;;;2.33;;
71108;SDS011;59614;51.012;-1.648;2022-07-29T08:53:27;5.18;;;2.05;;
71108;SDS011;59614;51.012;-1.648;2022-07-29T08:55:54;9.18;;;2.13;;
71108;SDS011;59614;51.012;-1.648;2022-07-29T08:58:21;7.28;;;2.45;;
71108;SDS011;59614;51.012;-1.648;2022-07-29T09:00:53;5.28;;;2.13;;
71108;SDS011;59614;51.012;-1.648;2022-07-29T09:03:20;4.50;;;1.90;;
71108;SDS011;59614;51.012;-1.648;2022-07-29T09:05:48;4.43;;;2.30;;
71108;SDS011;59614;51.012;-1.648;2022-07-29T09:08:15;5.40;;;2.28;;
71108;SDS011;59614;51.012;-1.648;2022-07-29T09:10:42;3.33;;;1.80;;
71108;SDS011;59614;51.012;-1.648;2022-07-29T09:13:07;4.85;;;2.40;;
71108;SDS011;59614;51.012;-1.648;2022-07-29T09:15:33;8.57;;;2.30;;
71108;SDS011;59614;51.012;-1.648;2022-07-29T09:18:00;8.30;;;2.45;;
71108;SDS011;59614;51.012;-1.648;2022-07-29T09:20:27;7.70;;;2.38;;
71108;SDS011;59614;51.012;-1.648;2022-07-29T09:23:13;5.20;;;2.40;;
71108;SDS011;59614;51.012;-1.648;2022-07-29T09:25:39;13.45;;;2.50;;
71108;SDS011;59614;51.012;-1.648;2022-07-29T09:28:12;7.75;;;2.00;;
71108;SDS011;59614;51.012;-1.648;2022-07-29T09:30:54;5.50;;;2.03;;
71108;SDS011;59614;51.012;-1.648;2022-07-29T09:33:22;4.03;;;2.10;;
71108;SDS011;59614;51.012;-1.648;2022-07-29T09:36:04;5.05;;;2.13;;
71108;SDS011;59614;51.012;-1.648;2022-07-29T09:38:31;3.97;;;1.90;;
71108;SDS011;59614;51.012;-1.648;2022-07-29T09:40:58;7.93;;;2.10;;
71108;SDS011;59614;51.012;-1.648;2022-07-29T09:43:28;4.53;;;1.95;;
71108;SDS011;59614;51.012;-1.648;2022-07-29T09:45:54;4.75;;;1.77;;
71108;SDS011;59614;51.012;-1.648;2022-07-29T09:48:21;7.35;;;2.30;;
71108;SDS011;59614;51.012;-1.648;2022-07-29T09:50:49;7.93;;;1.90;;
71108;SDS011;59614;51.012;-1.648;2022-07-29T09:53:37;5.75;;;1.90;;
71108;SDS011;59614;51.012;-1.648;2022-07-29T09:56:02;6.50;;;1.90;;
71108;SDS011;59614;51.012;-1.648;2022-07-29T09:58:29;6.03;;;1.90;;
71108;SDS011;59614;51.012;-1.648;2022-07-29T10:00:55;4.55;;;2.00;;
71108;SDS011;59614;51.012;-1.648;2022-07-29T10:03:22;4.55;;;1.90;;
71108;SDS011;59614;51.012;-1.648;2022-07-29T10:11:10;8.82;;;2.15;;
71108;SDS011;59614;51.012;-1.648;2022-07-29T10:13:41;5.82;;;1.90;;
71108;SDS011;59614;51.012;-1.648;2022-07-29T10:16:08;5.22;;;2.10;;
71108;SDS011;59614;51.012;-1.648;2022-07-29T10:18:34;4.13;;;1.90;;
71108;SDS011;59614;51.012;-1.648;2022-07-29T10:21:00;4.10;;;2.05;;
71108;SDS011;59614;51.012;-1.648;2022-07-29T10:23:27;5.60;;;1.95;;
71108;SDS011;59614;51.012;-1.648;2022-07-29T10:25:54;6.28;;;1.92;;
71108;SDS011;59614;51.012;-1.648;2022-07-29T10:28:20;5.82;;;2.17;;
71108;SDS011;59614;51.012;-1.648;2022-07-29T10:30:46;4.10;;;2.00;;
71108;SDS011;59614;51.012;-1.648;2022-07-29T10:44:15;5.13;;;1.65;;
71108;SDS011;59614;51.012;-1.648;2022-07-29T10:46:47;5.57;;;1.90;;
71108;SDS011;59614;51.012;-1.648;2022-07-29T11:05:00;7.00;;;2.20;;
71108;SDS011;59614;51.012;-1.648;2022-07-29T11:07:28;4.93;;;1.90;;
71108;SDS011;59614;51.012;-1.648;2022-07-29T11:20:30;5.28;;;2.20;;
71108;SDS011;59614;51.012;-1.648;2022-07-29T11:23:18;6.88;;;2.10;;
71108;SDS011;59614;51.012;-1.648;2022-07-29T11:25:45;5.90;;;2.38;;
71108;SDS011;59614;51.012;-1.648;2022-07-29T11:28:30;5.80;;;1.92;;
71108;SDS011;59614;51.012;-1.648;2022-07-29T11:30:56;6.07;;;2.30;;
71108;SDS011;59614;51.012;-1.648;2022-07-29T11:33:31;4.53;;;1.90;;
71108;SDS011;59614;51.012;-1.648;2022-07-29T11:36:10;5.45;;;1.98;;
71108;SDS011;59614;51.012;-1.648;2022-07-29T11:38:40;8.57;;;1.98;;
71108;SDS011;59614;51.012;-1.648;2022-07-29T11:41:25;6.20;;;1.90;;
71108;SDS011;59614;51.012;-1.648;2022-07-29T11:43:54;5.72;;;2.22;;
71108;SDS011;59614;51.012;-1.648;2022-07-29T11:49:08;5.43;;;1.90;;
71108;SDS011;59614;51.012;-1.648;2022-07-29T11:51:35;6.13;;;2.13;;
71108;SDS011;59614;51.012;-1.648;2022-07-29T11:54:02;3.78;;;1.95;;
71108;SDS011;59614;51.012;-1.648;2022-07-29T11:56:29;5.57;;;1.90;;
71108;SDS011;59614;51.012;-1.648;2022-07-29T11:59:03;5.10;;;2.05;;
71108;SDS011;59614;51.012;-1.648;2022-07-29T12:01:29;7.63;;;1.98;;
71108;SDS011;59614;51.012;-1.648;2022-07-29T12:04:04;3.10;;;1.85;;
71108;SDS011;59614;51.012;-1.648;2022-07-29T12:06:31;7.65;;;1.80;;
71108;SDS011;59614;51.012;-1.648;2022-07-29T12:08:58;5.40;;;2.20;;
71108;SDS011;59614;51.012;-1.648;2022-07-29T12:11:23;5.82;;;2.10;;
71108;SDS011;59614;51.012;-1.648;2022-07-29T12:13:50;4.68;;;2.00;;
71108;SDS011;59614;51.012;-1.648;2022-07-29T12:16:16;11.57;;;2.30;;
71108;SDS011;59614;51.012;-1.648;2022-07-29T12:18:42;5.25;;;2.13;;
71108;SDS011;59614;51.012;-1.648;2022-07-29T12:21:07;9.95;;;2.05;;
71108;SDS011;59614;51.012;-1.648;2022-07-29T12:23:33;5.90;;;2.17;;
71108;SDS011;59614;51.012;-1.648;2022-07-29T12:25:58;14.93;;;2.10;;
71108;SDS011;59614;51.012;-1.648;2022-07-29T12:28:24;7.28;;;2.10;;
71108;SDS011;59614;51.012;-1.648;2022-07-29T12:30:50;4.80;;;2.10;;
71108;SDS011;59614;51.012;-1.648;2022-07-29T12:35:51;5.93;;;2.00;;
71108;SDS011;59614;51.012;-1.648;2022-07-29T12:38:25;4.93;;;2.17;;
71108;SDS011;59614;51.012;-1.648;2022-07-29T12:40:51;6.53;;;2.00;;
71108;SDS011;59614;51.012;-1.648;2022-07-29T12:43:19;14.60;;;2.15;;
71108;SDS011;59614;51.012;-1.648;2022-07-29T12:45:52;7.60;;;2.10;;
71108;SDS011;59614;51.012;-1.648;2022-07-29T12:48:34;17.00;;;3.17;;
71108;SDS011;59614;51.012;-1.648;2022-07-29T12:51:05;12.40;;;2.65;;
71108;SDS011;59614;51.012;-1.648;2022-07-29T12:53:32;5.78;;;2.13;;
71108;SDS011;59614;51.012;-1.648;2022-07-29T12:55:58;10.27;;;2.20;;
71108;SDS011;59614;51.012;-1.648;2022-07-29T13:11:35;4.35;;;2.08;;
71108;SDS011;59614;51.012;-1.648;2022-07-29T13:14:04;6.55;;;2.30;;
71108;SDS011;59614;51.012;-1.648;2022-07-29T13:19:05;10.33;;;2.10;;
71108;SDS011;59614;51.012;-1.648;2022-07-29T13:21:31;5.93;;;2.30;;
71108;SDS011;59614;51.012;-1.648;2022-07-29T13:23:56;4.53;;;2.10;;
71108;SDS011;59614;51.012;-1.648;2022-07-29T13:26:22;5.97;;;1.95;;
71108;SDS011;59614;51.012;-1.648;2022-07-29T13:28:47;7.37;;;2.23;;
71108;SDS011;59614;51.012;-1.648;2022-07-29T13:31:12;6.77;;;2.17;;
71108;SDS011;59614;51.012;-1.648;2022-07-29T13:33:38;6.47;;;2.00;;
71108;SDS011;59614;51.012;-1.648;2022-07-29T13:36:03;6.37;;;2.10;;
71108;SDS011;59614;51.012;-1.648;2022-07-29T13:38:29;5.57;;;2.20;;
71108;SDS011;59614;51.012;-1.648;2022-07-29T13:40:54;6.20;;;2.08;;
71108;SDS011;59614;51.012;-1.648;2022-07-29T13:43:20;3.63;;;1.80;;
71108;SDS011;59614;51.012;-1.648;2022-07-29T13:45:45;3.37;;;1.80;;
71108;SDS011;59614;51.012;-1.648;2022-07-29T13:48:11;7.67;;;2.20;;
71108;SDS011;59614;51.012;-1.648;2022-07-29T13:50:36;5.53;;;2.40;;
71108;SDS011;59614;51.012;-1.648;2022-07-29T13:53:02;4.13;;;2.10;;
71108;SDS011;59614;51.012;-1.648;2022-07-29T13:55:27;5.43;;;2.30;;
71108;SDS011;59614;51.012;-1.648;2022-07-29T13:57:52;3.77;;;1.80;;
71108;SDS011;59614;51.012;-1.648;2022-07-29T14:00:18;3.80;;;2.00;;
71108;SDS011;59614;51.012;-1.648;2022-07-29T14:02:44;7.17;;;2.40;;
71108;SDS011;59614;51.012;-1.648;2022-07-29T14:05:09;6.27;;;2.13;;
71108;SDS011;59614;51.012;-1.648;2022-07-29T14:07:38;3.97;;;2.00;;
71108;SDS011;59614;51.012;-1.648;2022-07-29T14:10:04;8.98;;;2.20;;
71108;SDS011;59614;51.012;-1.648;2022-07-29T14:12:30;9.55;;;2.20;;
71108;SDS011;59614;51.012;-1.648;2022-07-29T14:14:55;10.07;;;2.60;;
71108;SDS011;59614;51.012;-1.648;2022-07-29T14:17:21;7.53;;;2.40;;
71108;SDS011;59614;51.012;-1.648;2022-07-29T14:19:47;7.75;;;2.50;;
71108;SDS011;59614;51.012;-1.648;2022-07-29T14:22:13;6.73;;;2.00;;
71108;SDS011;59614;51.012;-1.648;2022-07-29T14:24:38;6.87;;;2.33;;
71108;SDS011;59614;51.012;-1.648;2022-07-29T14:27:04;6.85;;;2.08;;
71108;SDS011;59614;51.012;-1.648;2022-07-29T14:31:56;11.33;;;2.50;;
71108;SDS011;59614;51.012;-1.648;2022-07-29T14:34:22;7.20;;;2.40;;
71108;SDS011;59614;51.012;-1.648;2022-07-29T14:36:47;5.13;;;2.20;;
71108;SDS011;59614;51.012;-1.648;2022-07-29T14:39:13;8.33;;;2.80;;
71108;SDS011;59614;51.012;-1.648;2022-07-29T14:41:40;9.13;;;2.60;;
71108;SDS011;59614;51.012;-1.648;2022-07-29T14:44:06;6.57;;;2.17;;
71108;SDS011;59614;51.012;-1.648;2022-07-29T14:46:31;12.37;;;2.40;;
71108;SDS011;59614;51.012;-1.648;2022-07-29T14:48:57;7.00;;;2.20;;
71108;SDS011;59614;51.012;-1.648;2022-07-29T14:51:22;10.10;;;2.33;;
71108;SDS011;59614;51.012;-1.648;2022-07-29T14:53:48;5.67;;;2.17;;
71108;SDS011;59614;51.012;-1.648;2022-07-29T14:56:13;7.97;;;2.13;;
71108;SDS011;59614;51.012;-1.648;2022-07-29T14:58:39;6.47;;;2.27;;
71108;SDS011;59614;51.012;-1.648;2022-07-29T15:01:04;6.83;;;2.37;;
71108;SDS011;59614;51.012;-1.648;2022-07-29T15:03:31;5.35;;;2.00;;
71108;SDS011;59614;51.012;-1.648;2022-07-29T15:05:56;7.40;;;2.30;;
71108;SDS011;59614;51.012;-1.648;2022-07-29T15:08:21;5.07;;;2.23;;
71108;SDS011;59614;51.012;-1.648;2022-07-29T15:10:47;9.67;;;2.40;;
71108;SDS011;59614;51.012;-1.648;2022-07-29T15:13:13;7.03;;;2.40;;
71108;SDS011;59614;51.012;-1.648;2022-07-29T15:15:39;5.20;;;2.17;;
71108;SDS011;59614;51.012;-1.648;2022-07-29T15:18:04;7.00;;;2.30;;
71108;SDS011;59614;51.012;-1.648;2022-07-29T15:20:30;13.48;;;2.83;;
71108;SDS011;59614;51.012;-1.648;2022-07-29T15:22:55;16.67;;;3.05;;
71108;SDS011;59614;51.012;-1.648;2022-07-29T15:25:21;9.48;;;2.50;;
71108;SDS011;59614;51.012;-1.648;2022-07-29T15:27:47;8.50;;;2.40;;
71108;SDS011;59614;51.012;-1.648;2022-07-29T15:30:13;6.88;;;2.20;;
71108;SDS011;59614;51.012;-1.648;2022-07-29T15:32:41;11.15;;;2.40;;
71108;SDS011;59614;51.012;-1.648;2022-07-29T15:35:10;8.65;;;2.20;;
71108;SDS011;59614;51.012;-1.648;2022-07-29T15:37:39;4.55;;;2.10;;
71108;SDS011;59614;51.012;-1.648;2022-07-29T15:40:05;7.85;;;1.90;;
71108;SDS011;59614;51.012;-1.648;2022-07-29T15:42:31;8.50;;;2.30;;
71108;SDS011;59614;51.012;-1.648;2022-07-29T15:44:57;7.68;;;2.30;;
71108;SDS011;59614;51.012;-1.648;2022-07-29T15:47:22;6.53;;;2.10;;
71108;SDS011;59614;51.012;-1.648;2022-07-29T15:49:48;4.43;;;1.85;;
71108;SDS011;59614;51.012;-1.648;2022-07-29T15:52:14;6.25;;;2.00;;
71108;SDS011;59614;51.012;-1.648;2022-07-29T15:54:43;3.13;;;1.98;;
71108;SDS011;59614;51.012;-1.648;2022-07-29T15:57:09;5.35;;;2.35;;
71108;SDS011;59614;51.012;-1.648;2022-07-29T15:59:35;7.80;;;2.60;;
71108;SDS011;59614;51.012;-1.648;2022-07-29T16:02:00;5.40;;;2.17;;
71108;SDS011;59614;51.012;-1.648;2022-07-29T16:04:26;4.78;;;2.17;;
71108;SDS011;59614;51.012;-1.648;2022-07-29T16:06:52;9.30;;;2.63;;